Main page
METAR-TAF:

Airports :

Milan, Italy

Malpensa Airport

latitude: 45-37N, longitude: 008-44E, elevation: 234 m

Current weather observation

The report was made 15 minutes ago, at 14:20 UTC
Wind 4 kt from the South/Southwest, varying between Southeast and West/Northwest
Temperature 29°C
Humidity 48%
Pressure 1016 hPa
Visibility 10 km or more
no clouds below 1500 m and no cumulonimbus

METAR: LIMC 241420Z 21004KT 140V290 CAVOK 29/17 Q1016 NOSIG

Time: 16:35 (14:35 UTC)

Forecast

The report was made 3 hours and 35 minutes ago, at 11:00 UTC
Forecast valid from 24 at 12 UTC to 25 at 18 UTC
Wind 5 kt from variable directions
Visibility 10 km or more
Scattered clouds at a height of 5000 ft

TAF: LIMC 241100Z 2412/2518 VRB05KT 9999 SCT050

METAR-TAF

Weather observations and forecasts of more than 4000 airports (METAR and TAF reports).

The available stations are represented by yellow and red dots on the map.

Hover mouse over dot to see the name of the station.

Then click to see weather observations and forecasts.

To change the map : click on the green buttons with a black cross to zoom in, on the green button with a dash to zoom out, or on the green arrows for adjacent maps.


METAR-TAF: